Emmitsburg, Maryland
Current Conditions -  °F | °C
As of 5:23 AM on Wednesday 22 Oct 2014 (Local Time) from KRYT Reporting Station
Overcast Overcast  
Wind Chill: 54°   Ceiling: 2700
Heat Index: 54°   Visibility: 10mi
Dew Point: 46°   Wind: 7mph
Humidity: 77%   Direction: NA
Pressure: 29.9"   Gusts: NA
Location:  39.7°N, 77.33°W
Report Text: KRYT 220923Z AUTO VRB06KT 10SM SCT020 BKN027 OVC038 12/08 A2990 RMK AO2 $
Loading
Personal Weather Stations






























Interactive Weather Map
Tropical Storm Tracking
New forecast layout! Learn more

10-Day Weather Forecast

Advertisements
Track Severe Weather on mobile